Time;durP1;ratioP1;P1;durP2;ratioP2;P2;SDS_P1;SDS_P2;PMS_P1;PMS_P2;Temp;Humidity;BMP_temperature;BMP_pressure;BME280_temperature;BME280_humidity;BME280_pressure;Samples;Min_cycle;Max_cycle;Signal;HPM_P1;HPM_P2
2023/08/20 00:02:09;;;;;;;;;;;;;;;18.18;70.08;100994.97;4935022;28;2740;-82
2023/08/20 00:05:01;;;;;;;;;;;;;;;18.17;70.09;100996.84;4938736;28;2447;-85
2023/08/20 00:07:53;;;;;;;;;;;;;;;18.19;70.07;100995.78;4948970;28;2205;-84
2023/08/20 00:10:45;;;;;;;;;;;;;;;18.18;69.93;100997.69;4951463;28;2530;-84
2023/08/20 00:13:37;;;;;;;;;;;;;;;18.18;70.23;100986.78;4938425;28;2472;-86
2023/08/20 00:16:29;;;;;;;;;;;;;;;18.16;69.79;100987.03;4934538;28;2359;-86
2023/08/20 00:19:21;;;;;;;;;;;;;;;18.16;70.20;100981.59;4957687;28;2641;-87
2023/08/20 00:22:13;;;;;;;;;;;;;;;18.16;69.86;100984.31;4954963;28;2653;-87
2023/08/20 00:25:05;;;;;;;;;;;;;;;18.16;70.01;100973.41;4964252;28;2352;-88
2023/08/20 00:27:57;;;;;;;;;;;;;;;18.16;69.91;100973.41;4970667;28;2273;-88
2023/08/20 00:30:50;;;;;;;;;;;;;;;18.16;70.01;100983.50;4969772;28;2669;-87
2023/08/20 00:33:41;;;;;;;;;;;;;;;18.15;70.06;100979.13;4970036;28;2424;-87
2023/08/20 00:36:33;;;;;;;;;;;;;;;18.15;69.95;100976.41;4966326;28;2378;-87
2023/08/20 00:39:25;;;;;;;;;;;;;;;18.15;69.94;100965.50;4968589;28;2423;-87
2023/08/20 00:42:17;;;;;;;;;;;;;;;18.14;69.99;100978.28;4970503;28;2359;-85
2023/08/20 00:45:09;;;;;;;;;;;;;;;18.14;70.05;100974.75;4971720;28;2478;-86
2023/08/20 00:48:01;;;;;;;;;;;;;;;18.14;69.72;100972.84;4967886;28;2324;-83
2023/08/20 00:50:53;;;;;;;;;;;;;;;18.13;70.00;100965.75;4967334;28;2492;-85
2023/08/20 00:53:44;;;;;;;;;;;;;;;18.14;70.12;100966.56;4966226;28;2204;-84
2023/08/20 00:56:36;;;;;;;;;;;;;;;18.13;69.66;100968.47;4967550;28;2310;-83
2023/08/20 00:59:28;;;;;;;;;;;;;;;18.13;69.99;100973.94;4969256;28;2387;-83
2023/08/20 01:02:20;;;;;;;;;;;;;;;18.13;69.82;100968.47;4968692;28;2309;-83
2023/08/20 01:05:11;;;;;;;;;;;;;;;18.14;69.71;100966.56;4959330;28;2666;-79
2023/08/20 01:08:04;;;;;;;;;;;;;;;18.12;69.87;100961.41;4956870;28;2670;-79
2023/08/20 01:10:56;;;;;;;;;;;;;;;18.13;69.95;100956.75;4952476;28;2666;-78
2023/08/20 01:13:48;;;;;;;;;;;;;;;18.12;70.04;100953.22;4957988;28;2281;-80
2023/08/20 01:16:40;;;;;;;;;;;;;;;18.12;70.01;100955.94;4957411;28;2749;-80
2023/08/20 01:19:32;;;;;;;;;;;;;;;18.11;70.06;100954.28;4959732;28;2517;-80
2023/08/20 01:22:24;;;;;;;;;;;;;;;18.12;69.69;100953.22;4956114;28;3512;-80
2023/08/20 01:25:16;;;;;;;;;;;;;;;18.02;69.78;100942.22;4953809;28;2485;-80
2023/08/20 01:28:08;;;;;;;;;;;;;;;18.12;69.92;100946.94;4952816;28;2744;-82
2023/08/20 01:31:00;;;;;;;;;;;;;;;18.11;70.04;100948.00;4952763;28;2712;-82
2023/08/20 01:33:52;;;;;;;;;;;;;;;18.10;69.65;100947.19;4952804;28;2381;-80
2023/08/20 01:36:44;;;;;;;;;;;;;;;18.10;69.92;100947.19;4955489;28;2367;-82
2023/08/20 01:39:36;;;;;;;;;;;;;;;18.10;70.08;100949.91;4952600;28;2408;-81
2023/08/20 01:42:28;;;;;;;;;;;;;;;18.10;69.92;100944.47;4961416;28;2685;-80
2023/08/20 01:45:21;;;;;;;;;;;;;;;18.10;69.91;100943.66;4953330;28;2382;-76
2023/08/20 01:48:13;;;;;;;;;;;;;;;18.09;69.91;100934.66;4957729;28;2797;-77
2023/08/20 01:51:05;;;;;;;;;;;;;;;18.08;69.73;100938.44;4953878;28;2722;-78
2023/08/20 01:53:57;;;;;;;;;;;;;;;18.09;69.76;100934.66;4956483;28;2690;-78
2023/08/20 01:56:49;;;;;;;;;;;;;;;18.09;69.87;100942.84;4953125;28;2421;-76
2023/08/20 01:59:41;;;;;;;;;;;;;;;18.10;69.90;100932.75;4969354;28;2622;-77
2023/08/20 02:02:34;;;;;;;;;;;;;;;18.09;69.62;100936.56;4969761;28;2388;-79
2023/08/20 02:05:26;;;;;;;;;;;;;;;18.08;69.71;100935.72;4970326;28;2276;-79
2023/08/20 02:08:18;;;;;;;;;;;;;;;18.09;69.87;100933.84;4969570;28;2459;-79
2023/08/20 02:11:09;;;;;;;;;;;;;;;18.10;69.98;100930.03;4969069;28;2427;-79
2023/08/20 02:14:02;;;;;;;;;;;;;;;18.07;69.85;100928.66;4963940;28;2359;-78
2023/08/20 02:16:53;;;;;;;;;;;;;;;18.08;69.82;100926.72;4953729;28;2673;-78
2023/08/20 02:19:45;;;;;;;;;;;;;;;18.06;69.80;100918.84;4961290;28;2729;-81
2023/08/20 02:22:37;;;;;;;;;;;;;;;18.07;69.66;100911.47;4959723;28;3017;-80
2023/08/20 02:25:29;;;;;;;;;;;;;;;18.08;69.61;100915.84;4961512;28;2371;-81
2023/08/20 02:28:20;;;;;;;;;;;;;;;18.06;69.99;100920.72;4958168;28;2669;-79
2023/08/20 02:31:13;;;;;;;;;;;;;;;18.06;69.67;100910.66;4964172;28;2713;-79
2023/08/20 02:34:05;;;;;;;;;;;;;;;18.06;69.79;100907.94;4957319;28;2429;-78
2023/08/20 02:36:57;;;;;;;;;;;;;;;18.06;69.58;100905.22;4954824;28;2371;-79
2023/08/20 02:39:49;;;;;;;;;;;;;;;18.05;69.74;100900.81;4964271;28;2517;-77
2023/08/20 02:42:41;;;;;;;;;;;;;;;18.06;69.67;100896.19;4968792;28;2674;-80
2023/08/20 02:45:33;;;;;;;;;;;;;;;18.04;69.76;100899.19;4958731;28;2762;-81
2023/08/20 02:48:26;;;;;;;;;;;;;;;18.05;69.55;100900.00;4957225;28;2662;-80
2023/08/20 02:51:18;;;;;;;;;;;;;;;18.06;69.82;100897.03;4954323;28;2921;-81
2023/08/20 02:54:11;;;;;;;;;;;;;;;18.03;69.83;100883.94;4959289;28;2606;-81
2023/08/20 02:57:03;;;;;;;;;;;;;;;18.04;69.84;100901.91;4956550;28;2705;-81
2023/08/20 02:59:54;;;;;;;;;;;;;;;18.04;69.61;100885.56;4964761;28;2456;-81
2023/08/20 03:02:46;;;;;;;;;;;;;;;18.04;69.80;100899.19;4979324;23;1915;-93
2023/08/20 03:05:38;;;;;;;;;;;;;;;18.04;69.61;100892.91;4954628;28;2200;-93
2023/08/20 03:08:30;;;;;;;;;;;;;;;18.04;69.56;100890.19;4957000;29;2404;-93
2023/08/20 03:11:22;;;;;;;;;;;;;;;18.03;69.57;100886.66;4970910;28;1966;-93
2023/08/20 03:14:14;;;;;;;;;;;;;;;18.02;69.57;100882.25;4984865;28;1583;-94
2023/08/20 03:17:06;;;;;;;;;;;;;;;18.03;69.76;100883.94;4990308;28;1435;-95
2023/08/20 03:19:57;;;;;;;;;;;;;;;18.03;69.65;100880.34;4968246;28;2169;-92
2023/08/20 03:22:50;;;;;;;;;;;;;;;18.01;69.49;100877.91;4975863;28;2339;-94
2023/08/20 03:25:42;;;;;;;;;;;;;;;18.02;69.52;100874.09;4982074;28;2269;-95
2023/08/20 03:28:34;;;;;;;;;;;;;;;18.01;69.69;100861.56;4977465;28;2339;-93
2023/08/20 03:31:26;;;;;;;;;;;;;;;18.02;69.94;100865.09;4978774;28;2304;-95
2023/08/20 03:34:18;;;;;;;;;;;;;;;18.02;69.75;100859.66;4983156;28;1340;-94
2023/08/20 03:37:11;;;;;;;;;;;;;;;18.00;69.55;100856.34;4984935;28;824;-96
2023/08/20 03:40:05;;;;;;;;;;;;;;;17.99;69.63;100852.81;5004816;28;630;-95
2023/08/20 03:42:57;;;;;;;;;;;;;;;18.01;69.57;100847.94;5002285;28;1192;-94
2023/08/20 03:45:49;;;;;;;;;;;;;;;18.01;69.75;100849.84;4997265;28;1698;-93
2023/08/20 03:48:44;;;;;;;;;;;;;;;18.02;69.45;100843.28;4997027;28;588;-95
2023/08/20 03:51:40;;;;;;;;;;;;;;;18.00;69.79;100840.84;4994475;28;1879;-95
2023/08/20 03:54:39;;;;;;;;;;;;;;;18.01;69.63;100836.22;4986859;28;664;-93
2023/08/20 03:57:31;;;;;;;;;;;;;;;18.01;69.69;100833.50;4984193;28;1729;-94
2023/08/20 04:00:24;;;;;;;;;;;;;;;18.00;69.83;100840.00;4996372;28;668;-91
2023/08/20 04:03:27;;;;;;;;;;;;;;;18.00;69.76;100835.41;4992089;28;1351;-94
2023/08/20 04:06:18;;;;;;;;;;;;;;;17.99;69.43;100838.38;4985157;28;1772;-95
2023/08/20 04:09:10;;;;;;;;;;;;;;;17.99;69.56;100836.47;4983527;28;1613;-94
2023/08/20 04:12:03;;;;;;;;;;;;;;;17.99;69.51;100833.75;4983460;28;1970;-96
2023/08/20 04:14:55;;;;;;;;;;;;;;;17.99;69.74;100841.09;4977769;28;1486;-94
2023/08/20 04:17:48;;;;;;;;;;;;;;;17.97;69.70;100838.66;4975609;28;2380;-93
2023/08/20 04:20:40;;;;;;;;;;;;;;;17.98;69.75;100845.72;4989282;28;1759;-95
2023/08/20 04:23:32;;;;;;;;;;;;;;;17.97;69.64;100841.38;4982256;28;1380;-93
2023/08/20 04:26:24;;;;;;;;;;;;;;;18.00;69.52;100850.91;4977361;28;1128;-94
2023/08/20 04:29:16;;;;;;;;;;;;;;;17.98;69.50;100851.19;4971093;28;1651;-93
2023/08/20 04:32:10;;;;;;;;;;;;;;;17.98;69.43;100848.47;4974154;28;2001;-93
2023/08/20 04:35:02;;;;;;;;;;;;;;;17.97;69.39;100849.56;4981145;28;1170;-94
2023/08/20 04:37:54;;;;;;;;;;;;;;;17.98;69.66;100850.38;4997045;28;1776;-95
2023/08/20 04:40:46;;;;;;;;;;;;;;;17.97;69.59;100856.88;4984522;28;597;-94
2023/08/20 04:43:39;;;;;;;;;;;;;;;17.97;69.70;100860.44;4986694;28;625;-96
2023/08/20 04:46:31;;;;;;;;;;;;;;;17.97;69.81;100867.78;4982377;28;1291;-93
2023/08/20 04:49:25;;;;;;;;;;;;;;;17.97;69.64;100870.50;5004489;28;1577;-93
2023/08/20 04:52:18;;;;;;;;;;;;;;;17.97;69.46;100870.50;4981952;28;1942;-96
2023/08/20 04:55:10;;;;;;;;;;;;;;;17.98;69.39;100878.44;4979697;28;1184;-94
2023/08/20 04:58:02;;;;;;;;;;;;;;;17.96;69.58;100875.13;4982743;28;1781;-96
2023/08/20 05:00:54;;;;;;;;;;;;;;;17.98;69.69;100874.88;4980895;28;1723;-94
2023/08/20 05:03:46;;;;;;;;;;;;;;;17.95;69.66;100881.69;4983557;28;1525;-94
2023/08/20 05:06:38;;;;;;;;;;;;;;;17.95;69.38;100870.78;4980587;28;2482;-94
2023/08/20 05:09:31;;;;;;;;;;;;;;;17.97;69.65;100870.50;4969546;28;1164;-93
2023/08/20 05:12:23;;;;;;;;;;;;;;;17.95;69.61;100868.06;5007842;23;3552;-81
2023/08/20 05:15:15;;;;;;;;;;;;;;;17.97;69.35;100870.50;4942438;28;5411;-82
2023/08/20 05:18:07;;;;;;;;;;;;;;;17.95;69.64;100869.97;4955556;28;5701;-83
2023/08/20 05:20:59;;;;;;;;;;;;;;;17.94;69.56;100860.94;4954487;28;5077;-85
2023/08/20 05:23:51;;;;;;;;;;;;;;;17.95;69.65;100869.97;4955080;28;1422;-86
2023/08/20 05:26:43;;;;;;;;;;;;;;;17.95;69.62;100878.97;4954441;29;1255;-87
2023/08/20 05:29:35;;;;;;;;;;;;;;;17.95;69.43;100876.22;4954545;28;997;-87
2023/08/20 05:32:27;;;;;;;;;;;;;;;17.94;69.25;100871.84;4952184;28;1911;-87
2023/08/20 05:35:19;;;;;;;;;;;;;;;17.95;69.42;100872.69;4954064;29;1057;-85
2023/08/20 05:38:12;;;;;;;;;;;;;;;17.92;69.35;100869.41;4950242;28;2335;-87
2023/08/20 05:41:03;;;;;;;;;;;;;;;17.91;69.49;100875.94;4962559;28;1402;-87
2023/08/20 05:43:55;;;;;;;;;;;;;;;17.93;69.45;100876.47;4961849;28;1677;-86
2023/08/20 05:46:47;;;;;;;;;;;;;;;17.94;69.59;100877.28;4955584;28;1466;-88
2023/08/20 05:49:39;;;;;;;;;;;;;;;17.94;69.33;100877.28;4950828;28;1487;-86
2023/08/20 05:52:31;;;;;;;;;;;;;;;17.93;69.39;100881.94;4951080;28;1903;-85
2023/08/20 05:55:24;;;;;;;;;;;;;;;17.91;69.58;100867.75;4953568;28;2532;-85
2023/08/20 05:58:16;;;;;;;;;;;;;;;17.92;69.39;100869.41;4948260;28;2452;-84
2023/08/20 06:01:07;;;;;;;;;;;;;;;17.92;69.47;100854.97;4954130;28;2793;-85
2023/08/20 06:03:59;;;;;;;;;;;;;;;17.90;69.44;100857.94;4959259;28;6019;-84
2023/08/20 06:06:51;;;;;;;;;;;;;;;17.90;69.55;100857.94;4971511;28;2871;-83
2023/08/20 06:09:58;;;;;;;;;;;;;;;17.89;69.42;100861.75;4970574;28;2963;-85
2023/08/20 06:12:52;;;;;;;;;;;;;;;17.92;69.56;100860.41;4969985;28;3836;-85
2023/08/20 06:15:44;;;;;;;;;;;;;;;17.91;69.55;100856.00;4972690;28;1606;-85
2023/08/20 06:18:36;;;;;;;;;;;;;;;17.92;69.32;100863.13;4960515;28;2429;-84
2023/08/20 06:21:28;;;;;;;;;;;;;;;17.89;69.32;100859.03;4960240;28;2670;-84
2023/08/20 06:24:20;;;;;;;;;;;;;;;17.89;69.34;100859.03;4962079;28;2455;-86
2023/08/20 06:27:12;;;;;;;;;;;;;;;17.90;69.49;100865.28;4962580;28;2239;-87
2023/08/20 06:30:04;;;;;;;;;;;;;;;17.89;69.33;100871.81;4960901;28;2873;-90
2023/08/20 06:32:56;;;;;;;;;;;;;;;17.89;69.39;100872.63;4955876;28;1962;-89
2023/08/20 06:35:48;;;;;;;;;;;;;;;17.89;69.71;100872.63;4957544;28;2534;-88
2023/08/20 06:38:40;;;;;;;;;;;;;;;17.88;69.65;100868.28;4961426;28;2672;-93
2023/08/20 06:41:32;;;;;;;;;;;;;;;17.90;76.27;100868.81;4960257;28;2724;-74
2023/08/20 06:44:24;;;;;;;;;;;;;;;17.81;73.90;100877.75;4962321;28;2361;-86
2023/08/20 06:47:16;;;;;;;;;;;;;;;17.87;72.38;100876.72;4958120;28;2335;-85
2023/08/20 06:50:08;;;;;;;;;;;;;;;17.90;71.38;100878.91;4960689;28;2655;-85
2023/08/20 06:53:00;;;;;;;;;;;;;;;17.89;71.09;100872.63;4958780;28;2642;-85
2023/08/20 06:55:52;;;;;;;;;;;;;;;17.88;71.18;100881.91;4965125;28;2496;-88
2023/08/20 06:58:44;;;;;;;;;;;;;;;17.89;70.87;100877.28;4973877;28;1417;-87
2023/08/20 07:01:36;;;;;;;;;;;;;;;17.88;70.70;100876.47;4964641;28;2375;-87
2023/08/20 07:04:28;;;;;;;;;;;;;;;17.89;70.71;100877.28;4959088;28;2229;-86
2023/08/20 07:07:20;;;;;;;;;;;;;;;17.88;70.39;100878.34;4965831;28;2614;-89
2023/08/20 07:10:12;;;;;;;;;;;;;;;17.88;70.37;100881.06;4961073;28;2248;-87
2023/08/20 07:13:04;;;;;;;;;;;;;;;17.88;70.26;100883.78;4957159;28;2622;-87
2023/08/20 07:15:56;;;;;;;;;;;;;;;17.87;70.60;100876.72;4957845;28;2316;-88
2023/08/20 07:18:48;;;;;;;;;;;;;;;17.87;70.07;100888.41;4958539;28;2587;-87
2023/08/20 07:21:40;;;;;;;;;;;;;;;17.88;70.30;100886.50;4966635;28;2328;-90
2023/08/20 07:24:34;;;;;;;;;;;;;;;17.88;70.02;100883.78;4967167;28;2240;-89
2023/08/20 07:27:26;;;;;;;;;;;;;;;17.87;70.28;100884.88;4979075;28;2091;-87
2023/08/20 07:30:18;;;;;;;;;;;;;;;17.87;69.92;100879.44;4969574;28;2372;-89
2023/08/20 07:33:10;;;;;;;;;;;;;;;17.88;70.22;100881.06;4972981;28;2196;-87
2023/08/20 07:36:02;;;;;;;;;;;;;;;17.86;69.98;100875.88;4967341;28;5299;-87
2023/08/20 07:38:54;;;;;;;;;;;;;;;17.86;70.10;100869.63;4974170;28;2581;-88
2023/08/20 07:41:46;;;;;;;;;;;;;;;17.86;70.10;100872.34;4976997;28;893;-90
2023/08/20 07:44:38;;;;;;;;;;;;;;;17.86;70.01;100869.63;4970081;28;1562;-91
2023/08/20 07:47:30;;;;;;;;;;;;;;;17.86;70.03;100875.88;4970635;28;1196;-91
2023/08/20 07:50:22;;;;;;;;;;;;;;;17.86;69.98;100877.78;4973818;28;914;-91
2023/08/20 07:53:14;;;;;;;;;;;;;;;17.86;69.80;100875.88;4966988;28;5120;-89
2023/08/20 07:56:06;;;;;;;;;;;;;;;17.86;69.71;100881.34;4977824;28;1889;-91
2023/08/20 07:58:58;;;;;;;;;;;;;;;17.87;70.01;100879.44;4989288;28;1766;-91
2023/08/20 08:01:50;;;;;;;;;;;;;;;17.87;69.94;100884.88;4976558;28;1660;-90
2023/08/20 08:04:42;;;;;;;;;;;;;;;17.86;70.00;100878.63;4976720;28;1929;-93
2023/08/20 08:07:34;;;;;;;;;;;;;;;17.87;69.82;100884.88;4971513;28;1343;-92
2023/08/20 08:10:26;;;;;;;;;;;;;;;17.88;69.88;100884.63;4979388;28;1580;-90
2023/08/20 08:13:18;;;;;;;;;;;;;;;17.86;70.10;100884.06;4980106;28;1914;-93
2023/08/20 08:16:10;;;;;;;;;;;;;;;17.87;69.90;100890.31;4975063;28;1664;-91
2023/08/20 08:19:02;;;;;;;;;;;;;;;17.86;69.84;100889.50;4971764;28;1295;-94
2023/08/20 08:25:11;;;;;;;;;;;;;;;17.86;70.10;100897.69;4975585;28;945;-90
2023/08/20 08:28:03;;;;;;;;;;;;;;;17.86;69.94;100894.16;4973836;28;2428;-91
2023/08/20 08:30:54;;;;;;;;;;;;;;;17.86;69.86;100894.16;4977145;28;1635;-90
2023/08/20 08:33:46;;;;;;;;;;;;;;;17.84;69.86;100897.13;4970145;28;1467;-91
2023/08/20 08:36:38;;;;;;;;;;;;;;;17.86;69.95;100896.88;4970814;28;2199;-89
2023/08/20 08:39:30;;;;;;;;;;;;;;;17.86;69.98;100894.16;4962652;28;2842;-91
2023/08/20 08:42:22;;;;;;;;;;;;;;;17.85;70.13;100900.66;4965248;28;2272;-90
2023/08/20 08:45:14;;;;;;;;;;;;;;;17.85;70.13;100900.66;4960716;28;2782;-91
2023/08/20 08:48:06;;;;;;;;;;;;;;;17.84;69.89;100902.56;4956954;28;2701;-88
2023/08/20 08:50:58;;;;;;;;;;;;;;;17.85;69.98;100897.94;4962593;28;2550;-89
2023/08/20 08:53:50;;;;;;;;;;;;;;;17.85;69.95;100897.94;4970546;28;2614;-88
2023/08/20 08:56:42;;;;;;;;;;;;;;;17.84;70.21;100896.28;4979145;28;2172;-90
2023/08/20 08:59:34;;;;;;;;;;;;;;;17.85;70.05;100897.94;4977353;28;1187;-90
2023/08/20 09:02:26;;;;;;;;;;;;;;;17.85;69.90;100900.66;4973868;28;1373;-90
2023/08/20 09:05:18;;;;;;;;;;;;;;;17.84;69.84;100905.28;4966095;28;2225;-90
2023/08/20 09:08:10;;;;;;;;;;;;;;;17.84;70.04;100905.28;4972013;28;2319;-87
2023/08/20 09:11:02;;;;;;;;;;;;;;;17.83;70.03;100903.66;4960057;28;2368;-88
2023/08/20 09:13:54;;;;;;;;;;;;;;;17.83;70.17;100898.22;4961848;28;2559;-88
2023/08/20 09:16:47;;;;;;;;;;;;;;;17.84;69.90;100908.00;4962898;28;2638;-86
2023/08/20 09:19:38;;;;;;;;;;;;;;;17.84;70.15;100902.56;4981026;28;1338;-88
2023/08/20 09:22:30;;;;;;;;;;;;;;;17.83;70.14;100903.66;4971132;28;1772;-88
2023/08/20 09:25:22;;;;;;;;;;;;;;;17.84;69.94;100899.84;4972826;28;2244;-89
2023/08/20 09:28:14;;;;;;;;;;;;;;;17.84;69.90;100907.19;4971283;28;2512;-90
2023/08/20 09:31:06;;;;;;;;;;;;;;;17.84;70.13;100899.03;4974694;28;1581;-89
2023/08/20 09:34:08;;;;;;;;;;;;;;;17.84;69.89;100905.28;4972661;28;1438;-91
2023/08/20 09:37:00;;;;;;;;;;;;;;;17.84;69.92;100901.75;4976420;28;1457;-90
2023/08/20 09:39:51;;;;;;;;;;;;;;;17.84;70.06;100905.28;4974196;28;1001;-89
2023/08/20 09:42:43;;;;;;;;;;;;;;;17.85;69.94;100906.09;4979554;28;942;-88
2023/08/20 09:45:35;;;;;;;;;;;;;;;17.84;69.91;100899.03;4967128;28;2666;-87
2023/08/20 09:48:27;;;;;;;;;;;;;;;17.85;70.01;100898.78;4967489;28;2324;-89
2023/08/20 09:51:19;;;;;;;;;;;;;;;17.86;69.99;100896.88;4960917;28;2328;-89
2023/08/20 09:54:12;;;;;;;;;;;;;;;17.85;70.08;100903.38;4960422;28;2245;-89
2023/08/20 09:57:04;;;;;;;;;;;;;;;17.86;69.81;100902.31;4964369;28;2365;-88
2023/08/20 09:59:55;;;;;;;;;;;;;;;17.86;70.04;100891.41;4975951;28;2283;-89
2023/08/20 10:02:47;;;;;;;;;;;;;;;17.88;70.04;100894.69;4971102;28;1870;-88
2023/08/20 10:05:39;;;;;;;;;;;;;;;17.86;70.04;100889.50;4974469;28;1024;-89
2023/08/20 10:08:31;;;;;;;;;;;;;;;17.86;69.88;100886.78;4971430;28;1806;-90
2023/08/20 10:11:23;;;;;;;;;;;;;;;17.87;69.90;100887.59;4976030;28;2260;-89
2023/08/20 10:14:15;;;;;;;;;;;;;;;17.87;69.90;100884.88;4964912;28;2661;-89
2023/08/20 10:17:07;;;;;;;;;;;;;;;17.87;70.07;100885.69;4972223;28;1114;-89
2023/08/20 10:19:59;;;;;;;;;;;;;;;17.87;69.88;100890.31;4972725;28;1937;-90
2023/08/20 10:22:51;;;;;;;;;;;;;;;17.87;70.00;100885.69;4973720;28;1467;-90
2023/08/20 10:25:44;;;;;;;;;;;;;;;17.88;70.10;100881.91;4970879;28;1545;-88
2023/08/20 10:28:36;;;;;;;;;;;;;;;17.88;69.98;100878.34;4972773;28;2867;-88
2023/08/20 10:31:27;;;;;;;;;;;;;;;17.88;70.05;100873.72;4981949;28;1838;-89
2023/08/20 10:34:19;;;;;;;;;;;;;;;17.88;70.00;100870.16;4979038;28;1706;-89
2023/08/20 10:37:11;;;;;;;;;;;;;;;17.88;69.99;100862.84;4973684;28;2188;-90
2023/08/20 10:40:04;;;;;;;;;;;;;;;17.88;69.82;100871.00;4966450;28;2379;-89
2023/08/20 10:42:56;;;;;;;;;;;;;;;17.90;69.89;100862.56;4970628;28;2274;-90
2023/08/20 10:45:47;;;;;;;;;;;;;;;17.90;70.11;100865.28;4965650;28;2289;-91
2023/08/20 10:48:39;;;;;;;;;;;;;;;17.90;70.04;100862.56;4969154;28;2316;-90
2023/08/20 10:51:31;;;;;;;;;;;;;;;17.90;70.08;100866.09;4967450;28;2626;-90
2023/08/20 10:54:23;;;;;;;;;;;;;;;17.90;69.92;100874.28;4969511;28;1576;-90
2023/08/20 10:57:15;;;;;;;;;;;;;;;17.90;69.82;100860.66;4969999;28;1520;-88
2023/08/20 11:00:11;;;;;;;;;;;;;;;17.90;69.87;100871.56;4974541;28;1433;-91
2023/08/20 11:03:03;;;;;;;;;;;;;;;17.91;69.95;100867.75;4979023;28;1353;-90
2023/08/20 11:05:55;;;;;;;;;;;;;;;17.91;69.86;100875.09;4962101;28;2563;-91
2023/08/20 11:08:47;;;;;;;;;;;;;;;17.91;69.86;100865.03;4961500;28;2388;-89
2023/08/20 11:11:39;;;;;;;;;;;;;;;17.92;69.90;100863.13;4961886;28;2568;-89
2023/08/20 11:14:31;;;;;;;;;;;;;;;17.93;70.06;100864.75;4962955;28;2272;-89
2023/08/20 11:17:23;;;;;;;;;;;;;;;17.92;70.01;100874.03;4963014;28;2404;-83
2023/08/20 11:20:15;;;;;;;;;;;;;;;17.92;69.92;100876.75;4963691;28;2651;-88
2023/08/20 11:23:07;;;;;;;;;;;;;;;17.93;70.03;100887.38;4965586;28;2252;-89
2023/08/20 11:25:59;;;;;;;;;;;;;;;17.93;70.01;100884.66;4964388;28;2317;-93
2023/08/20 11:28:51;;;;;;;;;;;;;;;17.93;69.97;100890.09;4964703;28;2360;-94
2023/08/20 11:31:43;;;;;;;;;;;;;;;17.94;70.18;100896.38;4966596;28;2298;-93
2023/08/20 11:34:37;;;;;;;;;;;;;;;17.96;69.83;100898.84;4978626;28;2231;-90
2023/08/20 11:37:29;;;;;;;;;;;;;;;17.94;70.00;100890.91;4962197;28;2591;-92
2023/08/20 11:40:21;;;;;;;;;;;;;;;17.94;69.94;100896.38;4961032;28;2324;-89
2023/08/20 11:43:13;;;;;;;;;;;;;;;17.95;70.05;100897.22;4960851;28;2578;-92
2023/08/20 11:46:05;;;;;;;;;;;;;;;17.96;70.17;100898.84;4963465;28;2594;-92
2023/08/20 11:48:56;;;;;;;;;;;;;;;17.95;70.21;100908.13;4959998;28;2284;-91
2023/08/20 11:51:49;;;;;;;;;;;;;;;17.96;70.22;100909.75;4974012;28;1033;-91
2023/08/20 11:54:41;;;;;;;;;;;;;;;17.95;69.87;100903.47;4973443;28;1392;-88
2023/08/20 11:57:33;;;;;;;;;;;;;;;17.96;70.33;100910.56;4959103;28;2575;-91
2023/08/20 12:00:26;;;;;;;;;;;;;;;17.96;70.29;100905.13;4965832;28;2305;-89
2023/08/20 12:03:18;;;;;;;;;;;;;;;17.97;70.22;100900.47;4960465;28;2618;-93
2023/08/20 12:06:10;;;;;;;;;;;;;;;17.96;70.00;100901.56;4966420;28;2646;-84
2023/08/20 12:09:03;;;;;;;;;;;;;;;17.97;70.31;100901.31;4965768;28;2259;-89
2023/08/20 12:11:55;;;;;;;;;;;;;;;17.97;70.42;100900.47;4966776;28;2630;-92
2023/08/20 12:14:47;;;;;;;;;;;;;;;17.98;70.24;100893.97;4970010;28;1941;-87
2023/08/20 12:17:39;;;;;;;;;;;;;;;17.98;70.02;100891.25;4972941;28;2280;-90
2023/08/20 12:20:31;;;;;;;;;;;;;;;17.97;70.03;100895.03;4976458;28;2275;-90
2023/08/20 12:23:23;;;;;;;;;;;;;;;17.97;70.05;100898.59;4971955;28;2227;-88
2023/08/20 12:26:15;;;;;;;;;;;;;;;17.99;70.30;100901.03;4969209;28;1785;-80
2023/08/20 12:29:07;;;;;;;;;;;;;;;17.99;70.24;100901.03;4971682;28;1663;-86
2023/08/20 12:31:59;;;;;;;;;;;;;;;17.98;70.22;100894.78;4971124;28;1544;-88
2023/08/20 12:34:51;;;;;;;;;;;;;;;17.99;70.02;100895.59;4970084;28;1467;-86
2023/08/20 12:37:43;;;;;;;;;;;;;;;17.99;70.35;100890.97;4968386;28;1491;-86
2023/08/20 12:40:35;;;;;;;;;;;;;;;17.99;70.33;100901.88;4977583;28;1694;-87
2023/08/20 12:43:27;;;;;;;;;;;;;;;17.99;70.29;100893.69;4971932;28;2281;-82
2023/08/20 12:46:19;;;;;;;;;;;;;;;18.00;70.10;100889.06;4961703;28;2356;-85
2023/08/20 12:49:11;;;;;;;;;;;;;;;18.00;70.09;100889.91;4961889;28;2302;-85
2023/08/20 12:52:03;;;;;;;;;;;;;;;18.01;70.12;100888.00;4955710;28;2284;-86
2023/08/20 12:54:55;;;;;;;;;;;;;;;18.01;70.20;100894.25;4955157;28;2603;-83
2023/08/20 12:57:47;;;;;;;;;;;;;;;18.01;70.32;100890.72;4958821;28;2312;-85
2023/08/20 13:00:42;;;;;;;;;;;;;;;18.01;70.10;100891.53;4974281;28;1803;-87
2023/08/20 13:03:34;;;;;;;;;;;;;;;18.03;70.15;100888.53;4977038;28;1735;-86
2023/08/20 13:06:27;;;;;;;;;;;;;;;18.02;70.55;100879.53;4964803;28;2201;-86
2023/08/20 13:09:19;;;;;;;;;;;;;;;18.03;70.30;100896.72;4959453;28;2266;-84
2023/08/20 13:12:12;;;;;;;;;;;;;;;18.03;70.38;100886.66;4960855;28;2760;-84
2023/08/20 13:15:03;;;;;;;;;;;;;;;18.04;70.25;100882.03;4969889;28;1888;-87
2023/08/20 13:17:55;;;;;;;;;;;;;;;18.04;70.20;100884.75;4969399;28;1933;-85
2023/08/20 13:20:47;;;;;;;;;;;;;;;18.03;70.53;100881.19;4969055;28;1524;-82
2023/08/20 13:23:40;;;;;;;;;;;;;;;18.04;70.41;100899.19;4970317;28;1775;-86
2023/08/20 13:26:32;;;;;;;;;;;;;;;18.04;70.37;100899.19;4968327;28;1511;-86
2023/08/20 13:29:24;;;;;;;;;;;;;;;18.05;70.48;100902.72;4972102;28;1334;-83
2023/08/20 13:32:16;;;;;;;;;;;;;;;18.04;70.38;100907.38;4971962;28;2041;-88
2023/08/20 13:35:08;;;;;;;;;;;;;;;18.05;70.48;100898.09;4970125;28;1452;-83
2023/08/20 13:38:01;;;;;;;;;;;;;;;18.07;70.48;100908.75;4974205;28;1574;-86
2023/08/20 13:40:53;;;;;;;;;;;;;;;18.05;70.15;100905.44;4983810;28;1496;-86
2023/08/20 13:43:45;;;;;;;;;;;;;;;18.06;70.35;100902.47;4967464;28;1638;-87
2023/08/20 13:46:37;;;;;;;;;;;;;;;18.07;70.34;100901.38;4968877;28;1617;-86
2023/08/20 13:49:29;;;;;;;;;;;;;;;18.07;70.46;100906.03;4974765;28;2556;-86
2023/08/20 13:52:21;;;;;;;;;;;;;;;18.06;70.56;100899.75;4972387;28;2231;-87
2023/08/20 13:55:13;;;;;;;;;;;;;;;18.07;70.54;100895.94;4973548;28;1481;-87
2023/08/20 13:58:05;;;;;;;;;;;;;;;18.08;70.64;100897.56;4979827;28;1779;-87
2023/08/20 14:00:57;;;;;;;;;;;;;;;18.06;70.45;100897.03;4971599;28;1675;-88
2023/08/20 14:03:50;;;;;;;;;;;;;;;18.08;70.59;100896.75;4973365;28;1405;-88
2023/08/20 14:06:41;;;;;;;;;;;;;;;18.07;70.37;100893.22;4976894;28;2283;-87
2023/08/20 14:09:34;;;;;;;;;;;;;;;18.07;70.40;100897.84;4964886;28;2386;-89
2023/08/20 14:12:26;;;;;;;;;;;;;;;18.07;70.54;100897.84;4969641;28;3085;-84
2023/08/20 14:15:18;;;;;;;;;;;;;;;18.07;70.30;100893.22;4965796;28;1634;-87
2023/08/20 14:18:10;;;;;;;;;;;;;;;18.08;70.51;100894.03;4970545;28;1660;-87
2023/08/20 14:21:02;;;;;;;;;;;;;;;18.08;70.36;100888.56;4977341;28;1609;-90
2023/08/20 14:23:54;;;;;;;;;;;;;;;18.09;70.58;100884.78;4971982;28;1493;-87
2023/08/20 14:26:46;;;;;;;;;;;;;;;18.09;70.35;100882.06;4972347;28;1402;-86
2023/08/20 14:29:38;;;;;;;;;;;;;;;18.08;70.35;100878.50;4974465;28;2309;-87
2023/08/20 14:32:30;;;;;;;;;;;;;;;18.08;70.57;100875.75;4976432;28;1964;-87
2023/08/20 14:35:22;;;;;;;;;;;;;;;18.08;70.59;100883.94;4971442;28;1489;-86
2023/08/20 14:38:14;;;;;;;;;;;;;;;18.08;70.62;100881.22;4974313;28;1433;-88
2023/08/20 14:41:06;;;;;;;;;;;;;;;18.09;70.43;100877.44;4977676;28;1437;-87
2023/08/20 14:43:58;;;;;;;;;;;;;;;18.09;70.66;100882.06;4980319;28;1477;-87
2023/08/20 14:46:50;;;;;;;;;;;;;;;18.08;70.55;100883.13;4974421;28;1579;-85
2023/08/20 14:49:41;;;;;;;;;;;;;;;18.11;70.63;100888.06;4968920;28;1532;-84
2023/08/20 14:52:33;;;;;;;;;;;;;;;18.09;70.57;100882.06;4972891;28;1421;-88
2023/08/20 14:55:25;;;;;;;;;;;;;;;18.08;70.58;100880.41;4966467;28;1486;-86
2023/08/20 14:58:16;;;;;;;;;;;;;;;18.08;70.63;100873.03;4971348;28;1523;-84
2023/08/20 15:01:08;;;;;;;;;;;;;;;18.08;70.55;100878.50;4974662;28;1563;-86